Deer Park, WA

7:10 AM PST on December 05, 2016 (GMT -0800)
Moab | | Change Station

Elev 2140 ft 47.73 °N, 117.06 °W | Updated 1 day ago

Clear
Clear
41.6 °F
Feels Like 37 °F
N
8.0
Wind Variable Wind from SSW
Gusts 13.0 mph

Today
High -- | Low -- °F
--% Chance of Precip.
Yesterday
High -- | Low -- °F
Precip. -- in
Pressure 30.15 in
Visibility 10.0 miles
Clouds Clear
Windchill 37 °F
Dew Point 34.6 °F
Humidity 76%
Rainfall in
Snow Depth Not available.
7:23 AM 3:57 PM
Waxing Crescent, 32% visible
METAR KDEW 051453Z AUTO 14005KT 10SM CLR M09/M11 A3006 RMK AO2 SLP208 T10891111 51012
Pressure 30.15 in
Visibility 10.0 miles
Clouds Clear
Windchill 37 °F
Dew Point 34.6 °F
Humidity 76%
Rainfall in
Snow Depth Not available.
7:23 AM 3:57 PM
Waxing Crescent, 32% visible
METAR KDEW 051453Z AUTO 14005KT 10SM CLR M09/M11 A3006 RMK AO2 SLP208 T10891111 51012

10-Day Weather Forecast

Almanac

Astronomy

Dec. 05, 2016 Rise Set
Actual Time
Civil Twilight
Nautical Twilight
Astronomical Twilight
Moon
Length of Visible Light
Length of Day
Tomorrow will be .
, % of the Moon is Illuminated

Today's Extremes

State Highs State Lows

Community

WunderPhotos

Upload Photos

1,955,780 photos uploaded!

WunderBlog® & News

Nearby

Air Quality

  Air Quality AQ Index Pollutant
Not available.

Snow Depth

Station Depth Elevation

Earthquake Activity

City Distance Mag. Time & Date
Minimum magnitude displayed is 2.5.

Coastal Water Temperatures

Place Temperature

Stations

Nearby Weather Stations

Station Location Temp. Windchill Dew Point Humidity Wind Precip. Elev Updated Type
                   

Watches & Warnings

There are currently no watches in effect.